createdAt,value
2018-06-08T00:00:49.362Z,25.44
2018-06-08T00:01:49.343Z,25.43
2018-06-08T00:02:49.344Z,25.48
2018-06-08T00:03:49.319Z,25.46
2018-06-08T00:04:49.309Z,25.44
2018-06-08T00:05:49.340Z,25.46
2018-06-08T00:06:49.343Z,25.44
2018-06-08T00:07:49.356Z,25.52
2018-06-08T00:08:49.312Z,25.44
2018-06-08T00:09:49.321Z,25.46
2018-06-08T00:10:49.321Z,25.43
2018-06-08T00:11:49.328Z,25.49
2018-06-08T00:12:49.363Z,25.43
2018-06-08T00:13:49.391Z,25.51
2018-06-08T00:14:49.348Z,25.46
2018-06-08T00:15:49.359Z,25.43
2018-06-08T00:16:49.367Z,25.33
2018-06-08T00:17:49.367Z,25.4
2018-06-08T00:18:49.294Z,25.41
2018-06-08T00:19:49.341Z,25.44
2018-06-08T00:20:49.360Z,25.41
2018-06-08T00:21:49.315Z,25.46
2018-06-08T00:22:49.383Z,25.46
2018-06-08T00:23:49.384Z,25.4
2018-06-08T00:24:49.443Z,25.46
2018-06-08T00:25:49.338Z,25.39
2018-06-08T00:26:49.345Z,25.4
2018-06-08T00:27:49.432Z,25.44
2018-06-08T00:28:49.391Z,25.41
2018-06-08T00:29:49.364Z,25.41
2018-06-08T00:30:49.401Z,25.46
2018-06-08T00:31:49.441Z,25.43
2018-06-08T00:32:49.418Z,25.39
2018-06-08T00:33:49.392Z,25.46
2018-06-08T00:34:49.379Z,25.41
2018-06-08T00:35:49.405Z,25.46
2018-06-08T00:36:49.415Z,25.39
2018-06-08T00:37:49.375Z,25.39
2018-06-08T00:38:49.373Z,25.46
2018-06-08T00:39:49.443Z,25.4
2018-06-08T00:40:49.418Z,25.41
2018-06-08T00:41:49.428Z,25.54
2018-06-08T00:42:49.373Z,25.46
2018-06-08T00:43:49.404Z,25.44
2018-06-08T00:44:49.413Z,25.37
2018-06-08T00:45:49.368Z,25.49
2018-06-08T00:46:49.375Z,25.46
2018-06-08T00:47:49.382Z,25.51
2018-06-08T00:48:49.445Z,25.43
2018-06-08T00:49:49.379Z,25.46
2018-06-08T00:50:49.381Z,25.41
2018-06-08T00:51:49.433Z,25.43
2018-06-08T00:52:49.449Z,25.46
2018-06-08T00:53:49.422Z,25.39
2018-06-08T00:54:49.451Z,25.41
2018-06-08T00:55:49.445Z,25.49
2018-06-08T00:56:49.391Z,25.37
2018-06-08T00:57:49.448Z,25.36
2018-06-08T00:58:49.408Z,25.36
2018-06-08T00:59:49.438Z,25.36
2018-06-08T01:00:49.470Z,25.44
2018-06-08T01:01:49.426Z,25.33
2018-06-08T01:02:49.485Z,25.43
2018-06-08T01:03:49.484Z,25.33
2018-06-08T01:04:49.469Z,25.36
2018-06-08T01:05:49.449Z,25.41
2018-06-08T01:06:49.456Z,25.43
2018-06-08T01:07:49.460Z,25.43
2018-06-08T01:10:56.402Z,25.39
2018-06-08T01:11:07.890Z,25.46
2018-06-08T01:12:07.893Z,25.41
2018-06-08T01:13:07.903Z,25.33
2018-06-08T01:14:07.889Z,25.41
2018-06-08T01:15:07.873Z,25.31
2018-06-08T01:16:07.876Z,25.36
2018-06-08T01:17:07.873Z,25.29
2018-06-08T01:18:07.865Z,25.43
2018-06-08T01:19:07.883Z,25.43
2018-06-08T01:20:07.854Z,25.43
2018-06-08T01:21:07.873Z,25.4
2018-06-08T01:22:07.861Z,25.41
2018-06-08T01:23:07.844Z,25.39
2018-06-08T01:24:07.850Z,25.41
2018-06-08T01:25:07.926Z,25.33
2018-06-08T01:26:07.893Z,25.43
2018-06-08T01:27:07.839Z,25.33
2018-06-08T01:28:07.871Z,25.43
2018-06-08T01:29:07.832Z,25.33
2018-06-08T01:30:07.961Z,25.43
2018-06-08T01:31:07.884Z,25.46
2018-06-08T01:32:07.907Z,25.39
2018-06-08T01:33:07.874Z,25.43
2018-06-08T01:34:07.919Z,25.48
2018-06-08T01:35:08.001Z,25.39
2018-06-08T01:36:07.879Z,25.44
2018-06-08T01:37:08.061Z,25.37
2018-06-08T01:38:07.949Z,25.41
2018-06-08T01:39:07.868Z,25.44
2018-06-08T01:40:07.920Z,25.41
2018-06-08T01:41:07.855Z,25.44
2018-06-08T01:42:07.945Z,25.44
2018-06-08T01:43:07.881Z,25.44
2018-06-08T01:44:08.598Z,25.41
2018-06-08T01:45:08.436Z,25.33
2018-06-08T01:46:07.885Z,25.26
2018-06-08T01:47:07.952Z,25.44
2018-06-08T01:48:07.873Z,25.3
2018-06-08T01:49:07.907Z,25.3
2018-06-08T01:50:07.889Z,25.29
2018-06-08T01:51:07.939Z,25.37
2018-06-08T01:52:07.929Z,25.37
2018-06-08T01:53:07.932Z,25.46
2018-06-08T01:54:07.908Z,25.31
2018-06-08T01:55:07.967Z,25.3
2018-06-08T01:56:07.903Z,25.31
2018-06-08T01:57:07.901Z,25.31
2018-06-08T01:58:07.890Z,25.33
2018-06-08T01:59:07.918Z,25.39
2018-06-08T02:00:07.924Z,25.33
2018-06-08T02:01:07.927Z,25.36
2018-06-08T02:02:07.919Z,25.41
2018-06-08T02:03:07.866Z,25.3
2018-06-08T02:04:07.907Z,25.31
2018-06-08T02:05:07.962Z,25.33
2018-06-08T02:06:07.912Z,25.34
2018-06-08T02:07:07.940Z,25.31
2018-06-08T02:08:07.877Z,25.26
2018-06-08T02:09:07.924Z,25.24
2018-06-08T02:10:07.972Z,25.34
2018-06-08T02:11:08.032Z,25.37
2018-06-08T02:12:07.948Z,25.33
2018-06-08T02:13:07.979Z,25.39
2018-06-08T02:14:07.984Z,25.3
2018-06-08T02:15:07.950Z,25.34
2018-06-08T02:16:07.999Z,25.37
2018-06-08T02:17:07.990Z,25.39
2018-06-08T02:18:07.883Z,25.21
2018-06-08T02:19:07.946Z,25.37
2018-06-08T02:20:07.978Z,25.3
2018-06-08T02:21:07.955Z,25.3
2018-06-08T02:22:07.920Z,25.29
2018-06-08T02:23:07.954Z,25.3
2018-06-08T02:24:07.940Z,25.29
2018-06-08T02:25:08.004Z,25.31
2018-06-08T02:26:07.973Z,25.29
2018-06-08T02:27:07.998Z,25.26
2018-06-08T02:28:07.954Z,25.26
2018-06-08T02:29:07.931Z,25.3
2018-06-08T02:30:07.967Z,25.29
2018-06-08T02:31:08.020Z,25.24
2018-06-08T02:32:07.950Z,25.24
2018-06-08T02:33:07.932Z,25.29
2018-06-08T02:34:07.993Z,25.29
2018-06-08T02:35:08.007Z,25.31
2018-06-08T02:36:07.962Z,25.24
2018-06-08T02:37:07.969Z,25.25
2018-06-08T02:38:07.964Z,25.25
2018-06-08T02:39:07.973Z,25.26
2018-06-08T02:40:08.025Z,25.22
2018-06-08T02:41:07.972Z,25.36
2018-06-08T02:42:08.021Z,25.26
2018-06-08T02:43:07.974Z,25.3
2018-06-08T02:44:08.016Z,25.31
2018-06-08T02:45:08.022Z,25.29
2018-06-08T02:46:08.359Z,25.24
2018-06-08T02:47:07.998Z,25.3
2018-06-08T02:48:08.013Z,25.31
2018-06-08T02:49:08.042Z,25.31
2018-06-08T02:50:08.068Z,25.37
2018-06-08T02:51:07.999Z,25.31
2018-06-08T02:52:08.012Z,25.31
2018-06-08T02:53:08.062Z,25.25
2018-06-08T02:54:08.051Z,25.39
2018-06-08T02:55:08.104Z,25.31
2018-06-08T02:56:08.041Z,25.31
2018-06-08T02:57:08.039Z,25.3
2018-06-08T02:58:08.021Z,25.36
2018-06-08T02:59:08.002Z,25.24
2018-06-08T03:00:08.109Z,25.34
2018-06-08T03:01:08.066Z,25.25
2018-06-08T03:02:08.039Z,25.31
2018-06-08T03:03:08.054Z,25.31
2018-06-08T03:04:08.040Z,25.3
2018-06-08T03:05:08.076Z,25.24
2018-06-08T03:06:08.102Z,25.26
2018-06-08T03:07:08.081Z,25.3
2018-06-08T03:08:08.015Z,25.3
2018-06-08T03:09:08.049Z,25.29
2018-06-08T03:10:08.084Z,25.31
2018-06-08T03:11:08.110Z,25.31
2018-06-08T03:12:08.217Z,25.26
2018-06-08T03:13:08.042Z,25.3
2018-06-08T03:14:08.054Z,25.21
2018-06-08T03:15:08.112Z,25.3
2018-06-08T03:16:08.117Z,25.25
2018-06-08T03:17:08.071Z,25.25
2018-06-08T03:18:08.061Z,25.29
2018-06-08T03:19:08.138Z,25.25
2018-06-08T03:20:08.109Z,25.3
2018-06-08T03:21:08.123Z,25.25
2018-06-08T03:22:08.180Z,25.3
2018-06-08T03:23:08.195Z,25.26
2018-06-08T03:24:08.166Z,25.31
2018-06-08T03:25:08.102Z,25.34
2018-06-08T03:26:08.181Z,25.25
2018-06-08T03:27:08.219Z,25.29
2018-06-08T03:28:08.197Z,25.3
2018-06-08T03:29:08.154Z,25.25
2018-06-08T03:30:08.183Z,25.26
2018-06-08T03:31:08.134Z,25.26
2018-06-08T03:32:08.196Z,25.31
2018-06-08T03:33:08.159Z,25.29
2018-06-08T03:34:08.083Z,25.26
2018-06-08T03:35:08.090Z,25.26
2018-06-08T03:36:08.215Z,25.29
2018-06-08T03:37:08.170Z,25.24
2018-06-08T03:38:08.077Z,25.26
2018-06-08T03:39:08.164Z,25.25
2018-06-08T03:40:08.140Z,25.33
2018-06-08T03:41:08.157Z,25.25
2018-06-08T03:42:08.109Z,25.24
2018-06-08T03:43:08.211Z,25.24
2018-06-08T03:44:08.184Z,25.29
2018-06-08T03:45:08.141Z,25.29
2018-06-08T03:46:08.112Z,25.34
2018-06-08T03:47:08.138Z,25.22
2018-06-08T03:48:08.140Z,25.29
2018-06-08T03:49:08.217Z,25.34
2018-06-08T03:50:08.152Z,25.26
2018-06-08T03:51:08.210Z,25.31
2018-06-08T03:52:08.171Z,25.33
2018-06-08T03:53:08.201Z,25.25
2018-06-08T03:54:08.177Z,25.29
2018-06-08T03:55:08.207Z,25.3
2018-06-08T03:56:08.168Z,25.36
2018-06-08T03:57:08.149Z,25.25
2018-06-08T03:58:08.180Z,25.26
2018-06-08T03:59:08.136Z,25.4
2018-06-08T04:00:08.172Z,25.21
2018-06-08T04:01:08.122Z,25.24
2018-06-08T04:02:08.128Z,25.29
2018-06-08T04:03:08.211Z,25.29
2018-06-08T04:04:08.195Z,25.29
2018-06-08T04:05:08.244Z,25.31
2018-06-08T04:06:08.184Z,25.22
2018-06-08T04:07:08.162Z,25.29
2018-06-08T04:08:08.190Z,25.24
2018-06-08T04:09:08.196Z,25.26
2018-06-08T04:10:08.206Z,25.24
2018-06-08T04:11:08.198Z,25.26
2018-06-08T04:12:08.239Z,25.26
2018-06-08T04:13:08.217Z,25.26
2018-06-08T04:14:08.177Z,25.33
2018-06-08T04:15:08.245Z,25.31
2018-06-08T04:16:08.148Z,25.3
2018-06-08T04:17:08.184Z,25.37
2018-06-08T04:18:08.159Z,25.37
2018-06-08T04:19:08.191Z,25.31
2018-06-08T04:20:08.242Z,25.25
2018-06-08T04:21:08.209Z,25.25
2018-06-08T04:22:08.213Z,25.3
2018-06-08T04:23:08.144Z,25.36
2018-06-08T04:24:08.220Z,25.31
2018-06-08T04:25:08.207Z,25.33
2018-06-08T04:26:08.230Z,25.22
2018-06-08T04:27:08.172Z,25.3
2018-06-08T04:28:08.279Z,25.24
2018-06-08T04:29:09.307Z,25.37
2018-06-08T04:30:13.974Z,25.26
2018-06-08T04:31:08.853Z,25.3
2018-06-08T04:32:08.270Z,25.26
2018-06-08T04:33:08.300Z,25.34
2018-06-08T04:34:08.211Z,25.37
2018-06-08T04:35:08.252Z,25.31
2018-06-08T04:36:08.218Z,25.39
2018-06-08T04:37:08.220Z,25.26
2018-06-08T04:38:08.208Z,25.3
2018-06-08T04:39:08.217Z,25.26
2018-06-08T04:40:08.232Z,25.31
2018-06-08T04:41:08.210Z,25.3
2018-06-08T04:42:08.264Z,25.3
2018-06-08T04:43:08.250Z,25.33
2018-06-08T04:44:08.384Z,25.3
2018-06-08T04:45:08.221Z,25.3
2018-06-08T04:46:08.233Z,25.29
2018-06-08T04:47:08.221Z,25.26
2018-06-08T04:48:08.252Z,25.31
2018-06-08T04:49:08.239Z,25.3
2018-06-08T04:50:08.285Z,25.26
2018-06-08T04:51:08.267Z,25.19
2018-06-08T04:52:08.275Z,25.29
2018-06-08T04:53:08.311Z,25.31
2018-06-08T04:54:08.252Z,25.33
2018-06-08T04:55:08.343Z,25.25
2018-06-08T04:56:08.305Z,25.29
2018-06-08T04:57:08.289Z,25.22
2018-06-08T04:58:08.286Z,25.31
2018-06-08T04:59:08.298Z,25.26
2018-06-08T05:00:08.338Z,25.37
2018-06-08T05:01:08.262Z,25.3
2018-06-08T05:02:08.287Z,25.26
2018-06-08T05:03:08.247Z,25.3
2018-06-08T05:04:08.300Z,25.29
2018-06-08T05:05:08.257Z,25.3
2018-06-08T05:06:08.315Z,25.25
2018-06-08T05:07:08.292Z,25.25
2018-06-08T05:08:08.437Z,25.22
2018-06-08T05:09:08.284Z,25.25
2018-06-08T05:10:08.318Z,25.18
2018-06-08T05:11:08.391Z,25.21
2018-06-08T05:12:08.633Z,25.15
2018-06-08T05:13:08.283Z,25.16
2018-06-08T05:14:08.333Z,25.16
2018-06-08T05:15:08.407Z,25.11
2018-06-08T05:16:08.372Z,25.16
2018-06-08T05:17:08.461Z,25.19
2018-06-08T05:18:08.314Z,25.24
2018-06-08T05:19:08.392Z,25.16
2018-06-08T05:20:08.340Z,25.24
2018-06-08T05:21:08.367Z,25.18
2018-06-08T05:22:08.396Z,25.15
2018-06-08T05:23:08.299Z,25.15
2018-06-08T05:24:08.296Z,25.18
2018-06-08T05:25:08.443Z,25.15
2018-06-08T05:26:08.352Z,25.16
2018-06-08T05:27:08.353Z,25.18
2018-06-08T05:28:08.399Z,25.24
2018-06-08T05:29:08.329Z,25.19
2018-06-08T05:30:08.376Z,25.16
2018-06-08T05:31:08.399Z,25.19
2018-06-08T05:32:08.301Z,25.12
2018-06-08T05:33:08.349Z,25.24
2018-06-08T05:34:10.684Z,25.18
2018-06-08T05:35:11.887Z,25.21
2018-06-08T05:36:08.485Z,25.11
2018-06-08T05:37:08.334Z,25.14
2018-06-08T05:38:09.199Z,25.21
2018-06-08T05:39:09.605Z,25.16
2018-06-08T05:40:08.442Z,25.24
2018-06-08T05:41:08.407Z,25.18
2018-06-08T05:42:08.950Z,25.22
2018-06-08T05:43:08.659Z,25.33
2018-06-08T05:44:08.509Z,25.29
2018-06-08T05:45:08.397Z,25.22
2018-06-08T05:46:08.371Z,25.29
2018-06-08T05:47:08.370Z,25.33
2018-06-08T05:48:08.463Z,25.3
2018-06-08T05:49:08.335Z,25.26
2018-06-08T05:50:08.441Z,25.34
2018-06-08T05:51:08.373Z,25.33
2018-06-08T05:52:08.409Z,25.39
2018-06-08T05:53:08.305Z,25.29
2018-06-08T05:54:08.350Z,25.34
2018-06-08T05:55:08.390Z,25.29
2018-06-08T05:56:08.384Z,25.29
2018-06-08T05:57:08.467Z,25.3
2018-06-08T05:58:08.340Z,25.3
2018-06-08T05:59:08.367Z,25.26
2018-06-08T06:00:08.458Z,25.26
2018-06-08T06:01:08.531Z,25.3
2018-06-08T06:02:08.926Z,25.25
2018-06-08T06:03:08.373Z,25.34
2018-06-08T06:04:08.351Z,25.24
2018-06-08T06:05:08.358Z,25.26
2018-06-08T06:06:08.361Z,25.22
2018-06-08T06:07:08.382Z,25.16
2018-06-08T06:08:08.465Z,25.25
2018-06-08T06:09:08.457Z,25.16
2018-06-08T06:10:08.425Z,25.11
2018-06-08T06:11:08.371Z,25.16
2018-06-08T06:12:08.454Z,25.19
2018-06-08T06:13:08.468Z,25.11
2018-06-08T06:14:08.503Z,25.11
2018-06-08T06:15:08.425Z,25.21
2018-06-08T06:16:08.437Z,25.18
2018-06-08T06:17:08.468Z,25.16
2018-06-08T06:18:08.471Z,25.24
2018-06-08T06:19:08.426Z,25.15
2018-06-08T06:20:08.489Z,25.15
2018-06-08T06:21:08.410Z,25.18
2018-06-08T06:22:08.478Z,25.12
2018-06-08T06:23:08.500Z,25.15
2018-06-08T06:24:08.464Z,25.21
2018-06-08T06:25:08.417Z,25.15
2018-06-08T06:26:08.544Z,25.21
2018-06-08T06:27:08.481Z,25.14
2018-06-08T06:28:08.531Z,25.24
2018-06-08T06:29:08.447Z,25.16
2018-06-08T06:30:08.478Z,25.18
2018-06-08T06:31:08.503Z,25.21
2018-06-08T06:32:08.517Z,25.26
2018-06-08T06:33:08.476Z,25.18
2018-06-08T06:34:08.423Z,25.22
2018-06-08T06:35:08.544Z,25.18
2018-06-08T06:36:08.515Z,25.16
2018-06-08T06:37:08.448Z,25.19
2018-06-08T06:38:08.443Z,25.3
2018-06-08T06:39:08.501Z,25.26
2018-06-08T06:40:08.441Z,25.25
2018-06-08T06:41:08.478Z,25.3
2018-06-08T06:42:08.436Z,25.22
2018-06-08T06:43:08.565Z,25.29
2018-06-08T06:44:08.459Z,25.22
2018-06-08T06:45:08.488Z,25.16
2018-06-08T06:46:08.454Z,25.25
2018-06-08T06:47:08.504Z,25.25
2018-06-08T06:48:08.461Z,25.24
2018-06-08T06:49:08.491Z,25.14
2018-06-08T06:50:08.551Z,25.16
2018-06-08T06:51:08.480Z,25.18
2018-06-08T06:52:08.496Z,25.22
2018-06-08T06:53:08.568Z,25.18
2018-06-08T06:54:08.506Z,25.18
2018-06-08T06:55:08.481Z,25.15
2018-06-08T06:56:08.579Z,25.12
2018-06-08T06:57:08.544Z,25.16
2018-06-08T06:58:08.585Z,25.11
2018-06-08T06:59:08.499Z,25.16
2018-06-08T07:00:08.492Z,25.21
2018-06-08T07:01:08.546Z,25.26
2018-06-08T07:02:08.585Z,25.19
2018-06-08T07:03:08.623Z,25.24
2018-06-08T07:04:08.576Z,25.24
2018-06-08T07:05:08.507Z,25.3
2018-06-08T07:06:08.504Z,25.25
2018-06-08T07:07:08.489Z,25.25
2018-06-08T07:08:08.490Z,25.25
2018-06-08T07:09:08.516Z,25.22
2018-06-08T07:10:08.565Z,25.25
2018-06-08T07:11:08.707Z,25.16
2018-06-08T07:12:08.588Z,25.16
2018-06-08T07:13:08.515Z,25.19
2018-06-08T07:14:08.511Z,25.15
2018-06-08T07:15:08.484Z,25.18
2018-06-08T07:16:08.520Z,25.24
2018-06-08T07:17:08.563Z,25.25
2018-06-08T07:18:08.561Z,25.24
2018-06-08T07:19:08.643Z,25.29
2018-06-08T07:20:08.522Z,25.25
2018-06-08T07:21:08.627Z,25.25
2018-06-08T07:22:08.551Z,25.24
2018-06-08T07:23:08.566Z,25.26
2018-06-08T07:24:08.612Z,25.24
2018-06-08T07:25:08.574Z,25.22
2018-06-08T07:26:08.577Z,25.18
2018-06-08T07:27:08.580Z,25.19
2018-06-08T07:28:08.616Z,25.15
2018-06-08T07:29:08.549Z,25.12
2018-06-08T07:30:08.632Z,25.26
2018-06-08T07:31:08.539Z,25.24
2018-06-08T07:32:08.655Z,25.29
2018-06-08T07:33:08.610Z,25.26
2018-06-08T07:34:08.590Z,25.21
2018-06-08T07:35:08.564Z,25.18
2018-06-08T07:36:08.569Z,25.22
2018-06-08T07:37:08.555Z,25.16
2018-06-08T07:38:08.548Z,25.24
2018-06-08T07:39:08.601Z,25.21
2018-06-08T07:40:08.767Z,25.18
2018-06-08T07:41:08.650Z,25.19
2018-06-08T07:42:08.661Z,25.24
2018-06-08T07:43:08.713Z,25.31
2018-06-08T07:44:08.604Z,25.3
2018-06-08T07:45:08.652Z,25.34
2018-06-08T07:46:08.551Z,25.25
2018-06-08T07:47:08.585Z,25.25
2018-06-08T07:48:08.593Z,25.26
2018-06-08T07:49:08.611Z,25.26
2018-06-08T07:50:08.668Z,25.25
2018-06-08T07:51:08.615Z,25.39
2018-06-08T07:52:08.616Z,25.31
2018-06-08T07:53:08.601Z,25.4
2018-06-08T07:54:08.581Z,25.3
2018-06-08T07:55:08.571Z,25.29
2018-06-08T07:56:08.677Z,25.34
2018-06-08T07:57:08.727Z,25.33
2018-06-08T07:58:09.625Z,25.34
2018-06-08T07:59:08.571Z,25.31
2018-06-08T08:00:08.623Z,25.33
2018-06-08T08:01:08.614Z,25.33
2018-06-08T08:02:08.757Z,25.39
2018-06-08T08:03:08.610Z,25.37
2018-06-08T08:04:08.625Z,25.36
2018-06-08T08:05:08.603Z,25.31
2018-06-08T08:06:08.588Z,25.4
2018-06-08T08:07:08.620Z,25.31
2018-06-08T08:08:08.600Z,25.34
2018-06-08T08:09:08.614Z,25.46
2018-06-08T08:10:08.647Z,25.25
2018-06-08T08:11:08.751Z,25.29
2018-06-08T08:12:08.598Z,25.31
2018-06-08T08:13:08.689Z,25.41
2018-06-08T08:14:08.612Z,25.33
2018-06-08T08:15:08.671Z,25.31
2018-06-08T08:16:08.657Z,25.34
2018-06-08T08:17:08.631Z,25.26
2018-06-08T08:18:08.629Z,25.33
2018-06-08T08:19:08.592Z,25.31
2018-06-08T08:20:08.654Z,25.3
2018-06-08T08:21:08.629Z,25.31
2018-06-08T08:22:08.644Z,25.29
2018-06-08T08:23:08.672Z,25.3
2018-06-08T08:24:08.619Z,25.33
2018-06-08T08:25:08.602Z,25.39
2018-06-08T08:26:08.629Z,25.4
2018-06-08T08:27:08.690Z,25.39
2018-06-08T08:28:08.659Z,25.36
2018-06-08T08:29:08.701Z,25.34
2018-06-08T08:30:08.661Z,25.4
2018-06-08T08:31:08.615Z,25.31
2018-06-08T08:32:08.702Z,25.36
2018-06-08T08:33:08.684Z,25.43
2018-06-08T08:34:08.693Z,25.43
2018-06-08T08:35:08.666Z,25.37
2018-06-08T08:36:08.704Z,25.37
2018-06-08T08:37:08.696Z,25.44
2018-06-08T08:38:08.688Z,25.33
2018-06-08T08:39:08.703Z,25.44
2018-06-08T08:40:08.651Z,25.46
2018-06-08T08:41:08.684Z,25.4
2018-06-08T08:42:08.662Z,25.41
2018-06-08T08:43:08.746Z,25.43
2018-06-08T08:44:08.653Z,25.44
2018-06-08T08:45:08.748Z,25.39
2018-06-08T08:46:08.768Z,25.39
2018-06-08T08:47:08.755Z,25.36
2018-06-08T08:48:08.755Z,25.4
2018-06-08T08:49:08.715Z,25.41
2018-06-08T08:50:08.736Z,25.41
2018-06-08T08:51:08.779Z,25.4
2018-06-08T08:52:08.812Z,25.41
2018-06-08T08:53:08.752Z,25.4
2018-06-08T08:54:08.704Z,25.41
2018-06-08T08:55:08.730Z,25.43
2018-06-08T08:56:08.779Z,25.4
2018-06-08T08:57:08.788Z,25.41
2018-06-08T08:58:08.792Z,25.41
2018-06-08T08:59:08.856Z,25.4
2018-06-08T09:00:08.784Z,25.31
2018-06-08T09:01:08.763Z,25.43
2018-06-08T09:02:08.743Z,25.41
2018-06-08T09:03:08.722Z,25.41
2018-06-08T09:04:08.789Z,25.44
2018-06-08T09:05:08.710Z,25.44
2018-06-08T09:06:08.717Z,25.44
2018-06-08T09:07:08.748Z,25.46
2018-06-08T09:08:08.760Z,25.46
2018-06-08T09:09:08.744Z,25.4
2018-06-08T09:10:08.695Z,25.43
2018-06-08T09:11:08.775Z,25.48
2018-06-08T09:12:09.452Z,25.41
2018-06-08T09:13:08.762Z,25.49
2018-06-08T09:14:08.761Z,25.41
2018-06-08T09:15:08.754Z,25.46
2018-06-08T09:16:08.783Z,25.44
2018-06-08T09:17:08.872Z,25.54
2018-06-08T09:18:08.750Z,25.54
2018-06-08T09:19:08.726Z,25.46
2018-06-08T09:20:08.929Z,25.54
2018-06-08T09:21:08.819Z,25.41
2018-06-08T09:22:08.824Z,25.43
2018-06-08T09:23:08.820Z,25.51
2018-06-08T09:24:08.766Z,25.41
2018-06-08T09:25:08.824Z,25.41
2018-06-08T09:26:08.746Z,25.44
2018-06-08T09:27:08.777Z,25.46
2018-06-08T09:28:08.828Z,25.48
2018-06-08T09:29:08.786Z,25.52
2018-06-08T09:30:08.851Z,25.48
2018-06-08T09:31:08.812Z,25.44
2018-06-08T09:32:08.802Z,25.43
2018-06-08T09:33:08.986Z,25.44
2018-06-08T09:34:08.837Z,25.46
2018-06-08T09:35:08.886Z,25.46
2018-06-08T09:36:08.831Z,25.52
2018-06-08T09:37:08.810Z,25.49
2018-06-08T09:38:08.932Z,25.48
2018-06-08T09:39:08.833Z,25.46
2018-06-08T09:40:08.935Z,25.43
2018-06-08T09:41:08.849Z,25.44
2018-06-08T09:42:08.837Z,25.49
2018-06-08T09:43:09.555Z,25.51
2018-06-08T09:44:08.842Z,25.51
2018-06-08T09:45:08.810Z,25.46
2018-06-08T09:46:08.836Z,25.46
2018-06-08T09:47:08.840Z,25.43
2018-06-08T09:48:08.921Z,25.46
2018-06-08T09:49:08.851Z,25.55
2018-06-08T09:50:08.776Z,25.44
2018-06-08T09:51:08.829Z,25.52
2018-06-08T09:52:08.987Z,25.44
2018-06-08T09:53:08.871Z,25.48
2018-06-08T09:54:08.806Z,25.44
2018-06-08T09:55:08.822Z,25.48
2018-06-08T09:56:08.867Z,25.49
2018-06-08T09:57:08.836Z,25.43
2018-06-08T09:58:08.905Z,25.51
2018-06-08T09:59:08.862Z,25.59
2018-06-08T10:00:08.845Z,25.52
2018-06-08T10:01:08.942Z,25.51
2018-06-08T10:02:08.931Z,25.43
2018-06-08T10:03:09.183Z,25.55
2018-06-08T10:04:08.913Z,25.52
2018-06-08T10:05:08.873Z,25.46
2018-06-08T10:06:08.820Z,25.49
2018-06-08T10:07:08.861Z,25.55
2018-06-08T10:08:08.901Z,25.56
2018-06-08T10:09:08.866Z,25.54
2018-06-08T10:10:08.846Z,25.56
2018-06-08T10:11:09.098Z,25.49
2018-06-08T10:12:11.016Z,25.56
2018-06-08T10:13:08.821Z,25.43
2018-06-08T10:14:08.869Z,25.46
2018-06-08T10:15:08.834Z,25.55
2018-06-08T10:16:08.889Z,25.51
2018-06-08T10:17:08.930Z,25.56
2018-06-08T10:18:08.851Z,25.48
2018-06-08T10:19:08.879Z,25.51
2018-06-08T10:20:08.899Z,25.43
2018-06-08T10:21:08.828Z,25.52
2018-06-08T10:22:08.924Z,25.59
2018-06-08T10:23:08.889Z,25.46
2018-06-08T10:24:08.907Z,25.46
2018-06-08T10:25:08.875Z,25.52
2018-06-08T10:26:08.872Z,25.46
2018-06-08T10:30:37.734Z,25.46
2018-06-08T10:31:37.695Z,25.51
2018-06-08T10:32:37.743Z,25.52
2018-06-08T10:33:37.695Z,25.55
2018-06-08T10:34:37.674Z,25.52
2018-06-08T10:35:37.715Z,25.46
2018-06-08T10:36:37.724Z,25.52
2018-06-08T10:37:37.728Z,25.54
2018-06-08T10:38:37.761Z,25.56
2018-06-08T10:39:37.670Z,25.56
2018-06-08T10:40:37.712Z,25.56
2018-06-08T10:41:37.720Z,25.48
2018-06-08T10:42:37.702Z,25.51
2018-06-08T10:43:37.691Z,25.61
2018-06-08T10:44:37.807Z,25.55
2018-06-08T10:45:37.728Z,25.59
2018-06-08T10:46:37.815Z,25.51
2018-06-08T10:47:37.714Z,25.55
2018-06-08T10:48:37.741Z,25.52
2018-06-08T10:49:37.692Z,25.52
2018-06-08T10:54:06.447Z,25.54
2018-06-08T10:55:06.452Z,25.51
2018-06-08T10:56:06.355Z,25.61
2018-06-08T10:57:06.437Z,25.58
2018-06-08T10:58:06.401Z,25.56
2018-06-08T10:59:06.429Z,25.55
2018-06-08T11:00:06.360Z,25.58
2018-06-08T11:01:06.390Z,25.55
2018-06-08T11:02:06.382Z,25.52
2018-06-08T11:03:06.453Z,25.56
2018-06-08T11:04:06.543Z,25.54
2018-06-08T11:09:23.942Z,25.55
2018-06-08T11:09:35.467Z,25.59
2018-06-08T11:10:35.462Z,25.59
2018-06-08T11:11:35.495Z,25.52
2018-06-08T11:12:35.461Z,25.49
2018-06-08T11:13:35.532Z,25.55
2018-06-08T11:14:35.781Z,25.51
2018-06-08T11:15:35.444Z,25.51
2018-06-08T11:16:35.487Z,25.55
2018-06-08T11:17:35.480Z,25.55
2018-06-08T11:18:35.462Z,25.59
2018-06-08T11:19:35.565Z,25.51
2018-06-08T11:20:35.539Z,25.56
2018-06-08T11:21:35.576Z,25.55
2018-06-08T11:22:35.465Z,25.54
2018-06-08T11:23:35.495Z,25.55
2018-06-08T11:24:35.543Z,25.58
2018-06-08T11:25:35.503Z,25.58
2018-06-08T11:26:35.555Z,25.52
2018-06-08T11:27:35.560Z,25.54
2018-06-08T11:28:35.633Z,25.56
2018-06-08T11:29:35.497Z,25.56
2018-06-08T11:30:35.542Z,25.52
2018-06-08T11:31:35.621Z,25.54
2018-06-08T11:32:35.615Z,25.56
2018-06-08T11:33:35.507Z,25.58
2018-06-08T11:34:35.583Z,25.58
2018-06-08T11:35:35.524Z,25.51
2018-06-08T11:36:35.544Z,25.58
2018-06-08T11:37:35.625Z,25.52
2018-06-08T11:38:35.484Z,25.58
2018-06-08T11:39:35.589Z,25.55
2018-06-08T11:40:35.575Z,25.55
2018-06-08T11:41:35.504Z,25.61
2018-06-08T11:42:35.531Z,25.51
2018-06-08T11:43:35.487Z,25.56
2018-06-08T11:44:35.561Z,25.56
2018-06-08T11:45:35.743Z,25.58
2018-06-08T11:46:35.557Z,25.56
2018-06-08T11:47:35.543Z,25.55
2018-06-08T11:48:35.524Z,25.55
2018-06-08T11:49:35.527Z,25.52
2018-06-08T11:50:35.607Z,25.54
2018-06-08T11:51:35.579Z,25.54
2018-06-08T11:52:35.572Z,25.54
2018-06-08T11:53:35.578Z,25.55
2018-06-08T11:54:35.594Z,25.61
2018-06-08T11:55:35.588Z,25.51
2018-06-08T11:56:35.604Z,25.76
2018-06-08T11:57:35.577Z,25.55
2018-06-08T11:58:35.578Z,25.56
2018-06-08T11:59:35.542Z,25.55
2018-06-08T12:00:35.570Z,25.56
2018-06-08T12:01:35.605Z,25.56
2018-06-08T12:02:35.587Z,25.55
2018-06-08T12:03:35.619Z,25.55
2018-06-08T12:04:35.592Z,25.59
2018-06-08T12:05:35.574Z,25.62
2018-06-08T12:06:35.578Z,25.61
2018-06-08T12:07:35.554Z,25.58
2018-06-08T12:08:35.594Z,25.52
2018-06-08T12:09:35.593Z,25.54
2018-06-08T12:10:35.593Z,25.54
2018-06-08T12:11:35.589Z,25.54
2018-06-08T12:12:35.568Z,25.56
2018-06-08T12:13:35.613Z,25.54
2018-06-08T12:14:35.594Z,25.54
2018-06-08T12:15:35.633Z,25.49
2018-06-08T12:16:35.570Z,25.55
2018-06-08T12:17:35.590Z,25.59
2018-06-08T12:18:35.586Z,25.56
2018-06-08T12:19:35.572Z,25.56
2018-06-08T12:20:35.578Z,25.54
2018-06-08T12:21:35.635Z,25.59
2018-06-08T12:22:35.559Z,25.56
2018-06-08T12:23:35.616Z,25.59
2018-06-08T12:24:35.627Z,25.52
2018-06-08T12:25:35.629Z,25.56
2018-06-08T12:26:35.597Z,25.52
2018-06-08T12:27:35.567Z,25.59
2018-06-08T12:28:35.550Z,25.56
2018-06-08T12:29:35.630Z,25.56
2018-06-08T12:30:35.672Z,25.56
2018-06-08T12:31:35.627Z,25.51
2018-06-08T12:32:35.630Z,25.61
2018-06-08T12:33:35.569Z,25.58
2018-06-08T12:34:35.585Z,25.59
2018-06-08T12:35:35.618Z,25.61
2018-06-08T12:36:35.669Z,25.55
2018-06-08T12:37:35.605Z,25.56
2018-06-08T12:38:35.584Z,25.63
2018-06-08T12:39:35.593Z,25.56
2018-06-08T12:40:35.627Z,25.54
2018-06-08T12:41:35.579Z,25.59
2018-06-08T12:42:35.594Z,25.58
2018-06-08T12:43:35.733Z,25.58
2018-06-08T12:44:35.621Z,25.63
2018-06-08T12:45:35.585Z,25.55
2018-06-08T12:46:35.649Z,25.54
2018-06-08T12:47:35.602Z,25.61
2018-06-08T12:48:35.665Z,25.63
2018-06-08T12:49:35.611Z,25.56
2018-06-08T12:50:35.640Z,25.58
2018-06-08T12:51:35.650Z,25.59
2018-06-08T12:52:35.606Z,25.56
2018-06-08T12:53:35.636Z,25.54
2018-06-08T12:54:35.690Z,25.61
2018-06-08T12:55:35.779Z,25.55
2018-06-08T12:56:35.831Z,25.55
2018-06-08T12:57:35.638Z,25.55
2018-06-08T12:58:35.716Z,25.58
2018-06-08T12:59:35.725Z,25.66
2018-06-08T13:00:35.655Z,25.55
2018-06-08T13:01:35.648Z,25.58
2018-06-08T13:02:35.596Z,25.59
2018-06-08T13:03:35.654Z,25.61
2018-06-08T13:04:35.660Z,25.58
2018-06-08T13:05:35.639Z,25.67
2018-06-08T13:06:35.768Z,25.61